sensor_id;sensor_type;location;lat;lon;timestamp;P1;durP1;ratioP1;P2;durP2;ratioP2
67867;SDS011;54672;46.096;14.470;2022-09-28T00:01:36;0.75;;;0.75;;
67867;SDS011;54672;46.096;14.470;2022-09-28T00:04:01;0.00;;;0.00;;
67867;SDS011;54672;46.096;14.470;2022-09-28T00:06:27;0.00;;;0.00;;
67867;SDS011;54672;46.096;14.470;2022-09-28T00:08:54;0.10;;;0.10;;
67867;SDS011;54672;46.096;14.470;2022-09-28T00:11:21;1.15;;;0.47;;
67867;SDS011;54672;46.096;14.470;2022-09-28T00:13:48;0.00;;;0.00;;
67867;SDS011;54672;46.096;14.470;2022-09-28T00:16:16;1.65;;;1.55;;
67867;SDS011;54672;46.096;14.470;2022-09-28T00:18:43;0.00;;;0.00;;
67867;SDS011;54672;46.096;14.470;2022-09-28T00:21:14;0.10;;;0.10;;
67867;SDS011;54672;46.096;14.470;2022-09-28T00:23:41;0.00;;;0.00;;
67867;SDS011;54672;46.096;14.470;2022-09-28T00:26:26;0.13;;;0.13;;
67867;SDS011;54672;46.096;14.470;2022-09-28T00:28:53;0.00;;;0.00;;
67867;SDS011;54672;46.096;14.470;2022-09-28T00:31:19;0.00;;;0.00;;
67867;SDS011;54672;46.096;14.470;2022-09-28T00:33:49;0.00;;;0.00;;
67867;SDS011;54672;46.096;14.470;2022-09-28T00:36:15;0.57;;;0.57;;
67867;SDS011;54672;46.096;14.470;2022-09-28T00:38:41;0.00;;;0.00;;
67867;SDS011;54672;46.096;14.470;2022-09-28T00:41:07;0.05;;;0.05;;
67867;SDS011;54672;46.096;14.470;2022-09-28T00:43:36;0.00;;;0.00;;
67867;SDS011;54672;46.096;14.470;2022-09-28T00:46:07;0.10;;;0.10;;
67867;SDS011;54672;46.096;14.470;2022-09-28T00:48:43;0.00;;;0.00;;
67867;SDS011;54672;46.096;14.470;2022-09-28T00:51:16;0.10;;;0.10;;
67867;SDS011;54672;46.096;14.470;2022-09-28T00:53:42;3.30;;;1.00;;
67867;SDS011;54672;46.096;14.470;2022-09-28T00:56:09;0.00;;;0.00;;
67867;SDS011;54672;46.096;14.470;2022-09-28T00:58:43;0.00;;;0.00;;
67867;SDS011;54672;46.096;14.470;2022-09-28T01:01:10;0.00;;;0.00;;
67867;SDS011;54672;46.096;14.470;2022-09-28T01:03:36;0.00;;;0.00;;
67867;SDS011;54672;46.096;14.470;2022-09-28T01:06:05;0.85;;;0.85;;
67867;SDS011;54672;46.096;14.470;2022-09-28T01:08:32;0.15;;;0.15;;
67867;SDS011;54672;46.096;14.470;2022-09-28T01:10:59;0.20;;;0.20;;
67867;SDS011;54672;46.096;14.470;2022-09-28T01:13:24;0.00;;;0.00;;
67867;SDS011;54672;46.096;14.470;2022-09-28T01:32:02;0.03;;;0.03;;
67867;SDS011;54672;46.096;14.470;2022-09-28T01:34:38;0.90;;;0.90;;
67867;SDS011;54672;46.096;14.470;2022-09-28T01:37:08;2.35;;;2.25;;
67867;SDS011;54672;46.096;14.470;2022-09-28T01:39:38;0.00;;;0.00;;
67867;SDS011;54672;46.096;14.470;2022-09-28T01:42:09;0.10;;;0.10;;
67867;SDS011;54672;46.096;14.470;2022-09-28T01:44:41;0.27;;;0.27;;
67867;SDS011;54672;46.096;14.470;2022-09-28T01:47:10;0.00;;;0.00;;
67867;SDS011;54672;46.096;14.470;2022-09-28T01:49:40;5.38;;;1.30;;
67867;SDS011;54672;46.096;14.470;2022-09-28T01:52:29;0.70;;;0.63;;
67867;SDS011;54672;46.096;14.470;2022-09-28T01:55:01;0.80;;;0.80;;
67867;SDS011;54672;46.096;14.470;2022-09-28T01:57:29;0.00;;;0.00;;
67867;SDS011;54672;46.096;14.470;2022-09-28T02:02:37;0.00;;;0.00;;
67867;SDS011;54672;46.096;14.470;2022-09-28T02:05:39;0.00;;;0.00;;
67867;SDS011;54672;46.096;14.470;2022-09-28T02:10:39;1.55;;;0.57;;
67867;SDS011;54672;46.096;14.470;2022-09-28T02:13:10;0.00;;;0.00;;
67867;SDS011;54672;46.096;14.470;2022-09-28T02:18:14;0.00;;;0.00;;
67867;SDS011;54672;46.096;14.470;2022-09-28T02:20:40;0.00;;;0.00;;
67867;SDS011;54672;46.096;14.470;2022-09-28T02:23:11;0.00;;;0.00;;
67867;SDS011;54672;46.096;14.470;2022-09-28T02:28:09;0.00;;;0.00;;
67867;SDS011;54672;46.096;14.470;2022-09-28T02:30:38;0.00;;;0.00;;
67867;SDS011;54672;46.096;14.470;2022-09-28T02:33:17;0.00;;;0.00;;
67867;SDS011;54672;46.096;14.470;2022-09-28T02:35:46;2.65;;;0.32;;
67867;SDS011;54672;46.096;14.470;2022-09-28T02:38:12;0.00;;;0.00;;
67867;SDS011;54672;46.096;14.470;2022-09-28T02:40:39;0.00;;;0.00;;
67867;SDS011;54672;46.096;14.470;2022-09-28T03:07:58;0.00;;;0.00;;
67867;SDS011;54672;46.096;14.470;2022-09-28T03:10:29;0.00;;;0.00;;
67867;SDS011;54672;46.096;14.470;2022-09-28T03:13:12;0.80;;;0.63;;
67867;SDS011;54672;46.096;14.470;2022-09-28T03:15:40;1.35;;;1.00;;
67867;SDS011;54672;46.096;14.470;2022-09-28T03:18:06;0.00;;;0.00;;
67867;SDS011;54672;46.096;14.470;2022-09-28T03:20:32;0.00;;;0.00;;
67867;SDS011;54672;46.096;14.470;2022-09-28T03:22:58;0.00;;;0.00;;
67867;SDS011;54672;46.096;14.470;2022-09-28T03:25:24;0.17;;;0.17;;
67867;SDS011;54672;46.096;14.470;2022-09-28T03:27:50;0.00;;;0.00;;
67867;SDS011;54672;46.096;14.470;2022-09-28T03:30:15;0.00;;;0.00;;
67867;SDS011;54672;46.096;14.470;2022-09-28T03:32:41;0.20;;;0.20;;
67867;SDS011;54672;46.096;14.470;2022-09-28T03:35:07;0.00;;;0.00;;
67867;SDS011;54672;46.096;14.470;2022-09-28T03:37:33;0.00;;;0.00;;
67867;SDS011;54672;46.096;14.470;2022-09-28T03:39:59;0.00;;;0.00;;
67867;SDS011;54672;46.096;14.470;2022-09-28T03:42:25;0.00;;;0.00;;
67867;SDS011;54672;46.096;14.470;2022-09-28T03:44:50;0.00;;;0.00;;
67867;SDS011;54672;46.096;14.470;2022-09-28T03:47:16;0.10;;;0.10;;
67867;SDS011;54672;46.096;14.470;2022-09-28T03:49:42;0.00;;;0.00;;
67867;SDS011;54672;46.096;14.470;2022-09-28T03:52:08;0.10;;;0.10;;
67867;SDS011;54672;46.096;14.470;2022-09-28T03:54:33;0.10;;;0.10;;
67867;SDS011;54672;46.096;14.470;2022-09-28T03:56:59;0.10;;;0.10;;
67867;SDS011;54672;46.096;14.470;2022-09-28T03:59:24;2.08;;;0.73;;
67867;SDS011;54672;46.096;14.470;2022-09-28T04:01:50;0.00;;;0.00;;
67867;SDS011;54672;46.096;14.470;2022-09-28T04:04:16;0.65;;;0.65;;
67867;SDS011;54672;46.096;14.470;2022-09-28T04:06:42;0.10;;;0.10;;
67867;SDS011;54672;46.096;14.470;2022-09-28T04:09:07;1.55;;;1.45;;
67867;SDS011;54672;46.096;14.470;2022-09-28T04:11:33;1.95;;;1.52;;
67867;SDS011;54672;46.096;14.470;2022-09-28T04:13:59;1.65;;;0.88;;
67867;SDS011;54672;46.096;14.470;2022-09-28T04:16:24;0.85;;;0.85;;
67867;SDS011;54672;46.096;14.470;2022-09-28T04:18:50;1.83;;;1.73;;
67867;SDS011;54672;46.096;14.470;2022-09-28T04:21:17;1.17;;;1.17;;
67867;SDS011;54672;46.096;14.470;2022-09-28T04:23:43;1.10;;;0.88;;
67867;SDS011;54672;46.096;14.470;2022-09-28T04:26:17;0.68;;;0.68;;
67867;SDS011;54672;46.096;14.470;2022-09-28T04:28:44;0.10;;;0.10;;
67867;SDS011;54672;46.096;14.470;2022-09-28T04:31:29;0.08;;;0.08;;
67867;SDS011;54672;46.096;14.470;2022-09-28T04:33:55;1.58;;;1.00;;
67867;SDS011;54672;46.096;14.470;2022-09-28T04:36:21;0.68;;;0.47;;
67867;SDS011;54672;46.096;14.470;2022-09-28T04:38:49;0.45;;;0.45;;
67867;SDS011;54672;46.096;14.470;2022-09-28T04:41:17;0.32;;;0.32;;
67867;SDS011;54672;46.096;14.470;2022-09-28T04:43:45;0.05;;;0.05;;
67867;SDS011;54672;46.096;14.470;2022-09-28T04:46:11;0.00;;;0.00;;
67867;SDS011;54672;46.096;14.470;2022-09-28T04:48:37;0.00;;;0.00;;
67867;SDS011;54672;46.096;14.470;2022-09-28T04:51:02;0.00;;;0.00;;
67867;SDS011;54672;46.096;14.470;2022-09-28T04:53:28;0.00;;;0.00;;
67867;SDS011;54672;46.096;14.470;2022-09-28T04:58:26;0.17;;;0.17;;
67867;SDS011;54672;46.096;14.470;2022-09-28T05:00:52;5.78;;;2.63;;
67867;SDS011;54672;46.096;14.470;2022-09-28T05:03:21;1.65;;;0.90;;
67867;SDS011;54672;46.096;14.470;2022-09-28T05:05:46;0.98;;;0.98;;
67867;SDS011;54672;46.096;14.470;2022-09-28T05:08:13;0.00;;;0.00;;
67867;SDS011;54672;46.096;14.470;2022-09-28T05:10:38;0.10;;;0.10;;
67867;SDS011;54672;46.096;14.470;2022-09-28T05:13:07;0.00;;;0.00;;
67867;SDS011;54672;46.096;14.470;2022-09-28T05:15:34;0.73;;;0.73;;
67867;SDS011;54672;46.096;14.470;2022-09-28T05:18:00;3.00;;;1.30;;
67867;SDS011;54672;46.096;14.470;2022-09-28T05:20:25;0.15;;;0.15;;
67867;SDS011;54672;46.096;14.470;2022-09-28T05:22:51;0.82;;;0.63;;
67867;SDS011;54672;46.096;14.470;2022-09-28T05:25:16;0.63;;;0.63;;
67867;SDS011;54672;46.096;14.470;2022-09-28T05:27:42;1.05;;;1.05;;
67867;SDS011;54672;46.096;14.470;2022-09-28T05:30:08;10.20;;;2.72;;
67867;SDS011;54672;46.096;14.470;2022-09-28T05:32:38;0.00;;;0.00;;
67867;SDS011;54672;46.096;14.470;2022-09-28T05:35:08;0.00;;;0.00;;
67867;SDS011;54672;46.096;14.470;2022-09-28T05:37:35;0.10;;;0.10;;
67867;SDS011;54672;46.096;14.470;2022-09-28T05:40:01;0.00;;;0.00;;
67867;SDS011;54672;46.096;14.470;2022-09-28T05:42:28;0.98;;;0.88;;
67867;SDS011;54672;46.096;14.470;2022-09-28T05:44:54;0.00;;;0.00;;
67867;SDS011;54672;46.096;14.470;2022-09-28T05:47:19;0.00;;;0.00;;
67867;SDS011;54672;46.096;14.470;2022-09-28T05:49:45;0.15;;;0.15;;
67867;SDS011;54672;46.096;14.470;2022-09-28T05:52:10;0.52;;;0.43;;
67867;SDS011;54672;46.096;14.470;2022-09-28T05:54:35;0.00;;;0.00;;
67867;SDS011;54672;46.096;14.470;2022-09-28T05:57:01;1.17;;;0.45;;
67867;SDS011;54672;46.096;14.470;2022-09-28T05:59:28;0.17;;;0.17;;
67867;SDS011;54672;46.096;14.470;2022-09-28T06:01:54;0.00;;;0.00;;
67867;SDS011;54672;46.096;14.470;2022-09-28T06:04:20;0.32;;;0.32;;
67867;SDS011;54672;46.096;14.470;2022-09-28T06:06:46;0.00;;;0.00;;
67867;SDS011;54672;46.096;14.470;2022-09-28T06:09:11;0.28;;;0.28;;
67867;SDS011;54672;46.096;14.470;2022-09-28T06:11:37;0.95;;;0.90;;
67867;SDS011;54672;46.096;14.470;2022-09-28T06:14:03;0.22;;;0.22;;
67867;SDS011;54672;46.096;14.470;2022-09-28T06:16:29;0.15;;;0.15;;
67867;SDS011;54672;46.096;14.470;2022-09-28T06:18:54;0.32;;;0.32;;
67867;SDS011;54672;46.096;14.470;2022-09-28T06:21:20;0.00;;;0.00;;
67867;SDS011;54672;46.096;14.470;2022-09-28T06:23:45;1.35;;;0.70;;
67867;SDS011;54672;46.096;14.470;2022-09-28T06:26:11;0.20;;;0.20;;
67867;SDS011;54672;46.096;14.470;2022-09-28T06:28:36;0.05;;;0.05;;
67867;SDS011;54672;46.096;14.470;2022-09-28T06:31:02;0.00;;;0.00;;
67867;SDS011;54672;46.096;14.470;2022-09-28T06:33:27;0.00;;;0.00;;
67867;SDS011;54672;46.096;14.470;2022-09-28T06:35:54;0.75;;;0.75;;
67867;SDS011;54672;46.096;14.470;2022-09-28T06:38:19;0.00;;;0.00;;
67867;SDS011;54672;46.096;14.470;2022-09-28T06:40:44;0.32;;;0.32;;
67867;SDS011;54672;46.096;14.470;2022-09-28T06:43:11;0.00;;;0.00;;
67867;SDS011;54672;46.096;14.470;2022-09-28T06:45:39;0.00;;;0.00;;
67867;SDS011;54672;46.096;14.470;2022-09-28T06:48:05;0.00;;;0.00;;
67867;SDS011;54672;46.096;14.470;2022-09-28T06:50:34;0.70;;;0.60;;
67867;SDS011;54672;46.096;14.470;2022-09-28T06:53:02;0.03;;;0.03;;
67867;SDS011;54672;46.096;14.470;2022-09-28T06:55:28;0.00;;;0.00;;
67867;SDS011;54672;46.096;14.470;2022-09-28T06:57:58;2.05;;;1.35;;
67867;SDS011;54672;46.096;14.470;2022-09-28T07:00:28;0.00;;;0.00;;
67867;SDS011;54672;46.096;14.470;2022-09-28T07:02:58;1.10;;;0.85;;
67867;SDS011;54672;46.096;14.470;2022-09-28T07:05:25;0.30;;;0.30;;
67867;SDS011;54672;46.096;14.470;2022-09-28T07:07:54;0.00;;;0.00;;
67867;SDS011;54672;46.096;14.470;2022-09-28T07:10:21;0.93;;;0.47;;
67867;SDS011;54672;46.096;14.470;2022-09-28T07:12:49;0.08;;;0.08;;
67867;SDS011;54672;46.096;14.470;2022-09-28T07:15:15;0.00;;;0.00;;
67867;SDS011;54672;46.096;14.470;2022-09-28T07:17:40;0.00;;;0.00;;
67867;SDS011;54672;46.096;14.470;2022-09-28T07:20:06;0.10;;;0.10;;
67867;SDS011;54672;46.096;14.470;2022-09-28T07:22:31;0.05;;;0.05;;
67867;SDS011;54672;46.096;14.470;2022-09-28T07:24:57;0.05;;;0.05;;
67867;SDS011;54672;46.096;14.470;2022-09-28T07:27:23;5.07;;;1.05;;
67867;SDS011;54672;46.096;14.470;2022-09-28T07:29:48;2.65;;;2.50;;
67867;SDS011;54672;46.096;14.470;2022-09-28T07:32:15;0.55;;;0.55;;
67867;SDS011;54672;46.096;14.470;2022-09-28T07:34:40;0.00;;;0.00;;
67867;SDS011;54672;46.096;14.470;2022-09-28T07:37:09;0.08;;;0.08;;
67867;SDS011;54672;46.096;14.470;2022-09-28T07:39:36;0.05;;;0.05;;
67867;SDS011;54672;46.096;14.470;2022-09-28T07:42:22;0.28;;;0.28;;
67867;SDS011;54672;46.096;14.470;2022-09-28T07:44:48;0.32;;;0.32;;
67867;SDS011;54672;46.096;14.470;2022-09-28T07:47:14;0.00;;;0.00;;
67867;SDS011;54672;46.096;14.470;2022-09-28T07:49:39;0.08;;;0.05;;
67867;SDS011;54672;46.096;14.470;2022-09-28T07:52:05;0.50;;;0.20;;
67867;SDS011;54672;46.096;14.470;2022-09-28T07:54:30;0.10;;;0.10;;
67867;SDS011;54672;46.096;14.470;2022-09-28T07:56:56;0.17;;;0.17;;
67867;SDS011;54672;46.096;14.470;2022-09-28T07:59:21;0.65;;;0.65;;
67867;SDS011;54672;46.096;14.470;2022-09-28T08:01:47;0.10;;;0.10;;
67867;SDS011;54672;46.096;14.470;2022-09-28T08:04:15;2.65;;;0.95;;
67867;SDS011;54672;46.096;14.470;2022-09-28T08:06:41;1.13;;;0.70;;
67867;SDS011;54672;46.096;14.470;2022-09-28T08:09:08;0.00;;;0.00;;
67867;SDS011;54672;46.096;14.470;2022-09-28T08:11:34;0.15;;;0.15;;
67867;SDS011;54672;46.096;14.470;2022-09-28T08:14:00;0.43;;;0.43;;
67867;SDS011;54672;46.096;14.470;2022-09-28T08:16:26;0.00;;;0.00;;
67867;SDS011;54672;46.096;14.470;2022-09-28T08:18:51;0.40;;;0.40;;
67867;SDS011;54672;46.096;14.470;2022-09-28T08:21:18;0.13;;;0.13;;
67867;SDS011;54672;46.096;14.470;2022-09-28T08:24:04;0.55;;;0.55;;
67867;SDS011;54672;46.096;14.470;2022-09-28T08:26:29;0.00;;;0.00;;
67867;SDS011;54672;46.096;14.470;2022-09-28T08:28:54;1.88;;;1.75;;
67867;SDS011;54672;46.096;14.470;2022-09-28T08:31:20;0.00;;;0.00;;
67867;SDS011;54672;46.096;14.470;2022-09-28T08:33:45;0.47;;;0.40;;
67867;SDS011;54672;46.096;14.470;2022-09-28T08:36:11;0.00;;;0.00;;
67867;SDS011;54672;46.096;14.470;2022-09-28T08:38:37;0.17;;;0.17;;
67867;SDS011;54672;46.096;14.470;2022-09-28T08:41:11;0.00;;;0.00;;
67867;SDS011;54672;46.096;14.470;2022-09-28T08:46:41;0.10;;;0.10;;
67867;SDS011;54672;46.096;14.470;2022-09-28T08:49:11;0.00;;;0.00;;
67867;SDS011;54672;46.096;14.470;2022-09-28T08:51:44;2.17;;;0.65;;
67867;SDS011;54672;46.096;14.470;2022-09-28T08:54:20;0.00;;;0.00;;
67867;SDS011;54672;46.096;14.470;2022-09-28T08:56:57;1.25;;;0.65;;
67867;SDS011;54672;46.096;14.470;2022-09-28T08:59:49;1.08;;;0.70;;
67867;SDS011;54672;46.096;14.470;2022-09-28T09:04:51;0.22;;;0.22;;
67867;SDS011;54672;46.096;14.470;2022-09-28T09:07:30;0.00;;;0.00;;
67867;SDS011;54672;46.096;14.470;2022-09-28T09:26:14;0.00;;;0.00;;
67867;SDS011;54672;46.096;14.470;2022-09-28T09:49:05;9.80;;;6.10;;
67867;SDS011;54672;46.096;14.470;2022-09-28T09:51:51;9.70;;;6.15;;
67867;SDS011;54672;46.096;14.470;2022-09-28T09:54:36;13.68;;;6.90;;
67867;SDS011;54672;46.096;14.470;2022-09-28T09:57:09;10.25;;;6.22;;
67867;SDS011;54672;46.096;14.470;2022-09-28T09:59:39;8.25;;;5.57;;
67867;SDS011;54672;46.096;14.470;2022-09-28T10:02:18;10.10;;;5.43;;
67867;SDS011;54672;46.096;14.470;2022-09-28T10:04:50;10.80;;;5.63;;
67867;SDS011;54672;46.096;14.470;2022-09-28T10:10:27;10.45;;;5.93;;
67867;SDS011;54672;46.096;14.470;2022-09-28T10:12:55;9.35;;;5.40;;
67867;SDS011;54672;46.096;14.470;2022-09-28T10:15:22;13.20;;;6.80;;
67867;SDS011;54672;46.096;14.470;2022-09-28T10:17:51;12.10;;;5.82;;
67867;SDS011;54672;46.096;14.470;2022-09-28T10:20:19;9.32;;;6.00;;
67867;SDS011;54672;46.096;14.470;2022-09-28T10:22:45;10.63;;;6.10;;
67867;SDS011;54672;46.096;14.470;2022-09-28T10:25:12;10.07;;;6.05;;
67867;SDS011;54672;46.096;14.470;2022-09-28T10:27:39;10.98;;;6.60;;
67867;SDS011;54672;46.096;14.470;2022-09-28T10:32:45;13.88;;;6.68;;
67867;SDS011;54672;46.096;14.470;2022-09-28T10:40:30;11.85;;;6.78;;
67867;SDS011;54672;46.096;14.470;2022-09-28T10:43:25;12.98;;;6.88;;
67867;SDS011;54672;46.096;14.470;2022-09-28T10:46:00;15.32;;;8.13;;
67867;SDS011;54672;46.096;14.470;2022-09-28T10:48:32;21.70;;;11.88;;
67867;SDS011;54672;46.096;14.470;2022-09-28T10:51:10;15.50;;;8.40;;
67867;SDS011;54672;46.096;14.470;2022-09-28T10:53:36;15.20;;;8.65;;
67867;SDS011;54672;46.096;14.470;2022-09-28T10:56:03;14.10;;;7.35;;
67867;SDS011;54672;46.096;14.470;2022-09-28T10:58:49;12.85;;;7.35;;
67867;SDS011;54672;46.096;14.470;2022-09-28T11:01:17;15.40;;;8.02;;
67867;SDS011;54672;46.096;14.470;2022-09-28T11:03:55;14.70;;;8.02;;
67867;SDS011;54672;46.096;14.470;2022-09-28T11:06:31;12.65;;;7.88;;
67867;SDS011;54672;46.096;14.470;2022-09-28T11:09:02;12.57;;;6.90;;
67867;SDS011;54672;46.096;14.470;2022-09-28T11:11:29;10.82;;;6.72;;
67867;SDS011;54672;46.096;14.470;2022-09-28T11:14:03;11.27;;;6.70;;
67867;SDS011;54672;46.096;14.470;2022-09-28T11:16:30;11.77;;;7.05;;
67867;SDS011;54672;46.096;14.470;2022-09-28T11:19:04;12.73;;;6.70;;
67867;SDS011;54672;46.096;14.470;2022-09-28T11:21:50;11.18;;;6.15;;
67867;SDS011;54672;46.096;14.470;2022-09-28T11:26:44;10.50;;;6.30;;
67867;SDS011;54672;46.096;14.470;2022-09-28T11:32:01;12.88;;;6.43;;
67867;SDS011;54672;46.096;14.470;2022-09-28T11:34:31;8.20;;;5.53;;
67867;SDS011;54672;46.096;14.470;2022-09-28T11:45:39;10.40;;;4.55;;
67867;SDS011;54672;46.096;14.470;2022-09-28T11:48:27;8.98;;;5.90;;
67867;SDS011;54672;46.096;14.470;2022-09-28T11:51:01;10.65;;;5.60;;
67867;SDS011;54672;46.096;14.470;2022-09-28T11:53:34;10.38;;;5.82;;
67867;SDS011;54672;46.096;14.470;2022-09-28T11:56:04;11.93;;;5.78;;
67867;SDS011;54672;46.096;14.470;2022-09-28T11:58:41;11.75;;;5.22;;
67867;SDS011;54672;46.096;14.470;2022-09-28T12:03:43;6.93;;;4.78;;
67867;SDS011;54672;46.096;14.470;2022-09-28T12:06:18;6.45;;;4.80;;
67867;SDS011;54672;46.096;14.470;2022-09-28T12:08:50;7.18;;;4.55;;
67867;SDS011;54672;46.096;14.470;2022-09-28T12:11:35;7.03;;;5.03;;
67867;SDS011;54672;46.096;14.470;2022-09-28T12:14:09;8.73;;;5.25;;
67867;SDS011;54672;46.096;14.470;2022-09-28T12:17:19;10.07;;;5.30;;
67867;SDS011;54672;46.096;14.470;2022-09-28T12:19:49;8.65;;;4.95;;
67867;SDS011;54672;46.096;14.470;2022-09-28T12:22:25;8.70;;;5.22;;
67867;SDS011;54672;46.096;14.470;2022-09-28T12:24:56;12.70;;;6.15;;
67867;SDS011;54672;46.096;14.470;2022-09-28T12:27:35;9.70;;;6.05;;
67867;SDS011;54672;46.096;14.470;2022-09-28T12:30:14;8.77;;;5.55;;
67867;SDS011;54672;46.096;14.470;2022-09-28T12:38:09;9.20;;;5.90;;
67867;SDS011;54672;46.096;14.470;2022-09-28T12:44:04;9.45;;;6.20;;
67867;SDS011;54672;46.096;14.470;2022-09-28T12:46:54;10.38;;;6.30;;
67867;SDS011;54672;46.096;14.470;2022-09-28T13:09:08;9.95;;;6.57;;
67867;SDS011;54672;46.096;14.470;2022-09-28T13:22:54;9.30;;;6.25;;
67867;SDS011;54672;46.096;14.470;2022-09-28T13:25:46;7.65;;;5.50;;
67867;SDS011;54672;46.096;14.470;2022-09-28T13:28:19;8.90;;;5.50;;
67867;SDS011;54672;46.096;14.470;2022-09-28T13:30:46;8.65;;;5.78;;
67867;SDS011;54672;46.096;14.470;2022-09-28T13:33:17;9.40;;;5.50;;
67867;SDS011;54672;46.096;14.470;2022-09-28T13:35:49;8.40;;;5.85;;
67867;SDS011;54672;46.096;14.470;2022-09-28T13:46:57;11.57;;;7.20;;
67867;SDS011;54672;46.096;14.470;2022-09-28T13:52:29;11.68;;;7.13;;
67867;SDS011;54672;46.096;14.470;2022-09-28T13:55:13;11.60;;;6.97;;
67867;SDS011;54672;46.096;14.470;2022-09-28T14:00:19;11.05;;;6.55;;
67867;SDS011;54672;46.096;14.470;2022-09-28T14:03:10;9.73;;;6.20;;
67867;SDS011;54672;46.096;14.470;2022-09-28T14:13:57;9.73;;;6.22;;
67867;SDS011;54672;46.096;14.470;2022-09-28T14:16:23;9.93;;;6.30;;
67867;SDS011;54672;46.096;14.470;2022-09-28T14:19:00;10.02;;;6.45;;
67867;SDS011;54672;46.096;14.470;2022-09-28T14:21:44;7.63;;;5.65;;
67867;SDS011;54672;46.096;14.470;2022-09-28T14:29:42;9.40;;;6.07;;
67867;SDS011;54672;46.096;14.470;2022-09-28T14:34:37;7.00;;;4.78;;
67867;SDS011;54672;46.096;14.470;2022-09-28T14:40:20;7.50;;;5.03;;
67867;SDS011;54672;46.096;14.470;2022-09-28T14:57:28;5.78;;;3.67;;
67867;SDS011;54672;46.096;14.470;2022-09-28T14:59:55;4.80;;;3.53;;
67867;SDS011;54672;46.096;14.470;2022-09-28T15:02:30;6.03;;;3.35;;
67867;SDS011;54672;46.096;14.470;2022-09-28T15:05:11;4.65;;;3.38;;
67867;SDS011;54672;46.096;14.470;2022-09-28T15:07:44;5.80;;;4.18;;
67867;SDS011;54672;46.096;14.470;2022-09-28T15:10:22;6.97;;;4.40;;
67867;SDS011;54672;46.096;14.470;2022-09-28T15:12:59;5.65;;;4.22;;
67867;SDS011;54672;46.096;14.470;2022-09-28T15:15:32;5.32;;;3.90;;
67867;SDS011;54672;46.096;14.470;2022-09-28T15:18:04;5.95;;;4.13;;
67867;SDS011;54672;46.096;14.470;2022-09-28T15:20:40;5.60;;;4.10;;
67867;SDS011;54672;46.096;14.470;2022-09-28T15:26:02;7.80;;;4.45;;
67867;SDS011;54672;46.096;14.470;2022-09-28T15:28:32;6.35;;;4.32;;
67867;SDS011;54672;46.096;14.470;2022-09-28T15:31:00;6.93;;;4.38;;
67867;SDS011;54672;46.096;14.470;2022-09-28T15:33:30;7.97;;;4.70;;
67867;SDS011;54672;46.096;14.470;2022-09-28T15:36:19;7.22;;;4.05;;
67867;SDS011;54672;46.096;14.470;2022-09-28T15:39:11;6.50;;;4.07;;
67867;SDS011;54672;46.096;14.470;2022-09-28T15:41:44;9.07;;;4.30;;
67867;SDS011;54672;46.096;14.470;2022-09-28T15:47:29;7.03;;;4.30;;
67867;SDS011;54672;46.096;14.470;2022-09-28T15:55:02;7.55;;;5.03;;
67867;SDS011;54672;46.096;14.470;2022-09-28T15:57:31;9.15;;;5.82;;
67867;SDS011;54672;46.096;14.470;2022-09-28T16:00:00;7.97;;;5.13;;
67867;SDS011;54672;46.096;14.470;2022-09-28T16:02:27;8.57;;;5.00;;
67867;SDS011;54672;46.096;14.470;2022-09-28T16:04:53;10.35;;;5.30;;
67867;SDS011;54672;46.096;14.470;2022-09-28T16:15:19;12.65;;;7.47;;
67867;SDS011;54672;46.096;14.470;2022-09-28T16:18:33;11.05;;;6.60;;
67867;SDS011;54672;46.096;14.470;2022-09-28T16:20:48;12.27;;;6.53;;
67867;SDS011;54672;46.096;14.470;2022-09-28T16:23:23;8.95;;;5.93;;
67867;SDS011;54672;46.096;14.470;2022-09-28T16:25:58;10.45;;;6.38;;
67867;SDS011;54672;46.096;14.470;2022-09-28T16:31:01;13.98;;;8.13;;
67867;SDS011;54672;46.096;14.470;2022-09-28T16:33:59;10.68;;;7.47;;
67867;SDS011;54672;46.096;14.470;2022-09-28T16:36:43;11.25;;;6.65;;
67867;SDS011;54672;46.096;14.470;2022-09-28T16:39:16;13.50;;;9.15;;
67867;SDS011;54672;46.096;14.470;2022-09-28T16:41:47;15.93;;;9.15;;
67867;SDS011;54672;46.096;14.470;2022-09-28T16:46:43;12.32;;;6.07;;
67867;SDS011;54672;46.096;14.470;2022-09-28T16:49:11;8.95;;;6.70;;
67867;SDS011;54672;46.096;14.470;2022-09-28T16:51:44;11.63;;;6.72;;
67867;SDS011;54672;46.096;14.470;2022-09-28T16:54:14;11.48;;;6.80;;
67867;SDS011;54672;46.096;14.470;2022-09-28T16:57:07;9.82;;;7.00;;
67867;SDS011;54672;46.096;14.470;2022-09-28T16:59:35;11.77;;;7.25;;
67867;SDS011;54672;46.096;14.470;2022-09-28T17:02:19;12.13;;;8.05;;
67867;SDS011;54672;46.096;14.470;2022-09-28T17:04:49;12.10;;;7.10;;
67867;SDS011;54672;46.096;14.470;2022-09-28T17:07:15;16.00;;;9.23;;
67867;SDS011;54672;46.096;14.470;2022-09-28T17:09:41;12.18;;;7.50;;
67867;SDS011;54672;46.096;14.470;2022-09-28T17:12:13;12.93;;;7.72;;
67867;SDS011;54672;46.096;14.470;2022-09-28T17:14:41;13.45;;;8.32;;
67867;SDS011;54672;46.096;14.470;2022-09-28T17:17:07;15.98;;;7.95;;
67867;SDS011;54672;46.096;14.470;2022-09-28T17:19:33;11.98;;;7.25;;
67867;SDS011;54672;46.096;14.470;2022-09-28T17:21:58;15.57;;;6.88;;
67867;SDS011;54672;46.096;14.470;2022-09-28T17:24:24;10.77;;;6.70;;
67867;SDS011;54672;46.096;14.470;2022-09-28T17:26:50;12.38;;;7.10;;
67867;SDS011;54672;46.096;14.470;2022-09-28T17:29:16;12.90;;;7.88;;
67867;SDS011;54672;46.096;14.470;2022-09-28T17:31:42;17.05;;;7.97;;
67867;SDS011;54672;46.096;14.470;2022-09-28T17:34:10;14.18;;;8.32;;
67867;SDS011;54672;46.096;14.470;2022-09-28T17:36:36;14.77;;;9.23;;
67867;SDS011;54672;46.096;14.470;2022-09-28T17:39:02;19.73;;;10.48;;
67867;SDS011;54672;46.096;14.470;2022-09-28T17:41:29;15.85;;;10.50;;
67867;SDS011;54672;46.096;14.470;2022-09-28T17:43:54;15.55;;;10.15;;
67867;SDS011;54672;46.096;14.470;2022-09-28T17:51:18;13.48;;;7.28;;
67867;SDS011;54672;46.096;14.470;2022-09-28T17:53:44;12.70;;;7.47;;
67867;SDS011;54672;46.096;14.470;2022-09-28T17:56:09;15.90;;;9.02;;
67867;SDS011;54672;46.096;14.470;2022-09-28T17:58:34;49.70;;;22.52;;
67867;SDS011;54672;46.096;14.470;2022-09-28T18:01:00;34.33;;;17.98;;
67867;SDS011;54672;46.096;14.470;2022-09-28T18:03:26;23.48;;;11.23;;
67867;SDS011;54672;46.096;14.470;2022-09-28T18:08:27;34.40;;;18.73;;
67867;SDS011;54672;46.096;14.470;2022-09-28T18:10:53;14.88;;;8.95;;
67867;SDS011;54672;46.096;14.470;2022-09-28T18:13:18;17.55;;;10.63;;
67867;SDS011;54672;46.096;14.470;2022-09-28T18:15:44;21.88;;;10.77;;
67867;SDS011;54672;46.096;14.470;2022-09-28T18:18:09;15.95;;;9.57;;
67867;SDS011;54672;46.096;14.470;2022-09-28T18:20:36;18.75;;;11.68;;
67867;SDS011;54672;46.096;14.470;2022-09-28T18:23:02;16.23;;;10.65;;
67867;SDS011;54672;46.096;14.470;2022-09-28T18:25:28;16.77;;;9.07;;
67867;SDS011;54672;46.096;14.470;2022-09-28T18:27:54;18.60;;;9.43;;
67867;SDS011;54672;46.096;14.470;2022-09-28T18:30:22;17.73;;;9.73;;
67867;SDS011;54672;46.096;14.470;2022-09-28T18:32:51;17.42;;;9.18;;
67867;SDS011;54672;46.096;14.470;2022-09-28T18:35:18;22.30;;;11.13;;
67867;SDS011;54672;46.096;14.470;2022-09-28T18:37:44;23.00;;;11.43;;
67867;SDS011;54672;46.096;14.470;2022-09-28T18:40:10;19.52;;;10.68;;
67867;SDS011;54672;46.096;14.470;2022-09-28T18:42:39;20.08;;;11.15;;
67867;SDS011;54672;46.096;14.470;2022-09-28T18:45:05;19.20;;;10.60;;
67867;SDS011;54672;46.096;14.470;2022-09-28T18:47:34;20.10;;;11.45;;
67867;SDS011;54672;46.096;14.470;2022-09-28T18:50:00;25.55;;;13.93;;